Time,TemperatureF,DewpointF,PressureIn,WindDirection,WindDirectionDegrees,WindSpeedMPH,WindSpeedGustMPH,Humidity,HourlyPrecipIn,Conditions,Clouds,dailyrainin,SoftwareType,DateUTC
2013-09-22 11:00:00,47.7,41.1,30.33,South,180,2.2,2.2,78,0.00,,,0.00,WUHU216HW,2013-09-22 16:00:00,
2013-09-22 11:05:00,48.1,41.5,30.33,SE,135,0.2,2.2,78,0.00,,,0.00,WUHU216HW,2013-09-22 16:05:00,
2013-09-22 11:10:00,48.1,41.5,30.33,SE,135,0.2,2.2,78,0.00,,,0.00,WUHU216HW,2013-09-22 16:10:00,
2013-09-22 11:32:00,51.1,43.5,30.33,SSW,203,1.8,1.8,75,0.00,,,0.00,WUHU216HW,2013-09-22 16:32:00,
2013-09-22 11:37:00,51.1,43.5,30.33,SSW,203,1.8,1.8,75,0.00,,,0.00,WUHU216HW,2013-09-22 16:37:00,
2013-09-22 12:00:00,51.8,43.5,30.32,SE,135,1.3,1.3,73,0.00,,,0.00,WUHU216HW,2013-09-22 17:00:00,
2013-09-22 12:05:00,51.8,43.5,30.32,SE,135,1.3,1.3,73,0.00,,,0.00,WUHU216HW,2013-09-22 17:05:00,
2013-09-22 12:30:00,54.9,45.4,30.32,SSE,158,5.4,5.4,70,0.00,,,0.00,WUHU216HW,2013-09-22 17:30:00,
2013-09-22 12:35:00,54.9,45.4,30.32,SSE,158,5.4,5.4,70,0.00,,,0.00,WUHU216HW,2013-09-22 17:35:00,
2013-09-22 13:00:00,56.5,45.6,30.31,SE,135,1.6,1.6,67,0.00,,,0.00,WUHU216HW,2013-09-22 18:00:00,
2013-09-22 13:05:00,56.5,45.6,30.31,SE,135,1.6,1.6,67,0.00,,,0.00,WUHU216HW,2013-09-22 18:05:00,
2013-09-22 13:30:00,57.6,44.6,30.30,ESE,113,1.3,1.3,62,0.00,,,0.00,WUHU216HW,2013-09-22 18:30:00,
2013-09-22 13:35:00,57.6,44.6,30.30,ESE,113,1.3,1.3,62,0.00,,,0.00,WUHU216HW,2013-09-22 18:35:00,
2013-09-22 14:00:00,58.5,45.9,30.28,SE,135,0.7,0.7,63,0.00,,,0.00,WUHU216HW,2013-09-22 19:00:00,
2013-09-22 14:05:00,58.5,45.9,30.28,SE,135,0.7,0.7,63,0.00,,,0.00,WUHU216HW,2013-09-22 19:05:00,
2013-09-22 14:10:00,58.5,45.9,30.28,SE,135,0.7,0.7,63,0.00,,,0.00,WUHU216HW,2013-09-22 19:10:00,
2013-09-22 14:30:00,60.1,45.8,30.28,ESE,113,0.7,0.7,59,0.00,,,0.00,WUHU216HW,2013-09-22 19:30:00,
2013-09-22 14:35:00,60.1,45.8,30.28,ESE,113,0.7,0.7,59,0.00,,,0.00,WUHU216HW,2013-09-22 19:35:00,
2013-09-22 15:00:00,59.6,45.7,30.27,ESE,113,0.9,0.9,60,0.00,,,0.00,WUHU216HW,2013-09-22 20:00:00,
2013-09-22 15:05:00,59.6,45.7,30.27,ESE,113,0.9,0.9,60,0.00,,,0.00,WUHU216HW,2013-09-22 20:05:00,
2013-09-22 15:10:00,59.6,45.7,30.27,ESE,113,0.9,0.9,60,0.00,,,0.00,WUHU216HW,2013-09-22 20:10:00,
2013-09-22 15:30:00,59.8,44.5,30.26,ESE,113,4.7,4.7,57,0.00,,,0.00,WUHU216HW,2013-09-22 20:30:00,
2013-09-22 15:35:00,59.8,44.5,30.26,ESE,113,4.7,4.7,57,0.00,,,0.00,WUHU216HW,2013-09-22 20:35:00,
2013-09-22 15:40:00,59.8,44.5,30.26,ESE,113,4.7,4.7,57,0.00,,,0.00,WUHU216HW,2013-09-22 20:40:00,
2013-09-22 16:00:00,60.1,45.3,30.25,SSE,158,3.6,3.6,58,0.00,,,0.00,WUHU216HW,2013-09-22 21:00:00,
2013-09-22 16:05:00,60.1,45.3,30.25,SSE,158,3.6,3.6,58,0.00,,,0.00,WUHU216HW,2013-09-22 21:05:00,
2013-09-22 16:30:00,59.8,45.5,30.25,ESE,113,2.9,2.9,59,0.00,,,0.00,WUHU216HW,2013-09-22 21:30:00,
2013-09-22 16:35:00,59.8,45.5,30.25,ESE,113,2.9,2.9,59,0.00,,,0.00,WUHU216HW,2013-09-22 21:35:00,
2013-09-22 17:00:00,59.0,45.6,30.25,SSE,158,2.5,2.5,61,0.00,,,0.00,WUHU216HW,2013-09-22 22:00:00,
2013-09-22 17:05:00,59.0,45.6,30.25,SSE,158,2.5,2.5,61,0.00,,,0.00,WUHU216HW,2013-09-22 22:05:00,
2013-09-22 17:10:00,59.0,45.6,30.25,SSE,158,2.5,2.5,61,0.00,,,0.00,WUHU216HW,2013-09-22 22:10:00,
2013-09-22 17:30:00,58.9,45.5,30.25,SE,135,1.8,1.8,61,0.00,,,0.00,WUHU216HW,2013-09-22 22:30:00,
2013-09-22 17:35:00,58.9,45.5,30.25,SE,135,1.8,1.8,61,0.00,,,0.00,WUHU216HW,2013-09-22 22:35:00,
2013-09-22 18:00:00,58.3,45.7,30.25,SE,135,2.2,2.2,63,0.00,,,0.00,WUHU216HW,2013-09-22 23:00:00,
2013-09-22 18:05:00,58.3,45.7,30.25,South,180,0.9,2.2,63,0.00,,,0.00,WUHU216HW,2013-09-22 23:05:00,
2013-09-22 18:10:00,58.3,45.7,30.25,South,180,0.9,0.9,63,0.00,,,0.00,WUHU216HW,2013-09-22 23:10:00,
2013-09-22 18:30:00,57.1,45.0,30.25,SSE,158,0.0,0.0,64,0.00,,,0.00,WUHU216HW,2013-09-22 23:30:00,
2013-09-22 18:35:00,57.1,45.0,30.25,SSE,158,0.0,0.0,64,0.00,,,0.00,WUHU216HW,2013-09-22 23:35:00,
2013-09-22 19:00:00,55.6,44.8,30.25,SSE,158,0.0,0.0,67,0.00,,,0.00,WUHU216HW,2013-09-23 00:00:00,
2013-09-22 19:05:00,55.6,44.8,30.25,SSE,158,0.0,0.0,67,0.00,,,0.00,WUHU216HW,2013-09-23 00:05:00,
2013-09-22 19:30:00,54.2,44.3,30.26,SSE,158,1.6,1.6,69,0.00,,,0.00,WUHU216HW,2013-09-23 00:30:00,
2013-09-22 19:35:00,54.2,44.3,30.26,SSE,158,1.6,1.6,69,0.00,,,0.00,WUHU216HW,2013-09-23 00:35:00,
2013-09-22 20:00:00,52.9,43.5,30.27,SSE,158,0.0,0.0,70,0.00,,,0.00,WUHU216HW,2013-09-23 01:00:00,
2013-09-22 20:05:00,52.9,43.5,30.27,SSE,158,0.0,0.0,70,0.00,,,0.00,WUHU216HW,2013-09-23 01:05:00,
2013-09-22 20:30:00,51.7,42.7,30.27,SSW,203,0.0,0.0,71,0.00,,,0.00,WUHU216HW,2013-09-23 01:30:00,
2013-09-22 20:35:00,51.7,42.7,30.27,SSW,203,0.0,0.0,71,0.00,,,0.00,WUHU216HW,2013-09-23 01:35:00,
2013-09-22 21:00:00,50.8,42.4,30.28,SSW,203,0.0,0.0,73,0.00,,,0.00,WUHU216HW,2013-09-23 02:00:00,
2013-09-22 21:05:00,50.8,42.4,30.28,SSW,203,0.0,0.0,73,0.00,,,0.00,WUHU216HW,2013-09-23 02:05:00,
2013-09-22 21:30:00,49.7,42.0,30.29,SSE,158,2.0,2.0,75,0.00,,,0.00,WUHU216HW,2013-09-23 02:30:00,
2013-09-22 21:35:00,49.7,42.0,30.29,SSE,158,2.0,2.0,75,0.00,,,0.00,WUHU216HW,2013-09-23 02:35:00,
2013-09-22 22:00:00,48.6,41.9,30.29,SSE,158,3.8,3.8,78,0.00,,,0.00,WUHU216HW,2013-09-23 03:00:00,
2013-09-22 22:05:00,48.6,41.9,30.29,SSE,158,3.8,3.8,78,0.00,,,0.00,WUHU216HW,2013-09-23 03:05:00,